createdAt,value
2022-09-01T00:01:20.819Z,5.10
2022-09-01T00:03:53.273Z,5.00
2022-09-01T00:06:24.337Z,5.30
2022-09-01T00:08:55.992Z,4.80
2022-09-01T00:11:28.356Z,5.70
2022-09-01T00:13:59.281Z,5.00
2022-09-01T00:16:30.346Z,5.40
2022-09-01T00:19:06.145Z,5.00
2022-09-01T00:21:40.062Z,5.10
2022-09-01T00:24:15.910Z,5.20
2022-09-01T00:26:50.360Z,5.80
2022-09-01T00:29:20.213Z,5.20
2022-09-01T00:31:49.892Z,6.00
2022-09-01T00:34:21.089Z,5.90
2022-09-01T00:36:51.899Z,6.20
2022-09-01T00:39:23.525Z,5.80
2022-09-01T00:41:53.339Z,5.80
2022-09-01T00:44:29.757Z,5.30
2022-09-01T00:47:00.921Z,5.90
2022-09-01T00:49:37.050Z,6.10
2022-09-01T00:52:12.099Z,5.50
2022-09-01T00:54:49.154Z,5.40
2022-09-01T00:57:30.103Z,5.60
2022-09-01T01:00:03.628Z,5.30
2022-09-01T01:02:33.636Z,5.90
2022-09-01T01:05:04.084Z,5.50
2022-09-01T01:07:41.004Z,5.40
2022-09-01T01:10:14.306Z,5.40
2022-09-01T01:12:45.498Z,5.80
2022-09-01T01:15:16.726Z,5.00
2022-09-01T01:17:46.285Z,5.50
2022-09-01T01:20:35.503Z,5.50
2022-09-01T01:23:15.755Z,5.20
2022-09-01T01:25:48.799Z,4.60
2022-09-01T01:28:21.895Z,5.00
2022-09-01T01:30:55.805Z,5.10
2022-09-01T01:33:30.842Z,4.70
2022-09-01T01:36:01.419Z,4.80
2022-09-01T01:38:30.980Z,5.20
2022-09-01T01:41:00.984Z,5.50
2022-09-01T01:43:30.762Z,5.40
2022-09-01T01:46:05.155Z,4.70
2022-09-01T01:48:38.044Z,5.20
2022-09-01T01:51:34.444Z,5.30
2022-09-01T01:54:05.232Z,5.40
2022-09-01T01:56:39.810Z,5.30
2022-09-01T01:59:15.282Z,5.40
2022-09-01T02:01:50.905Z,5.00
2022-09-01T02:04:22.800Z,4.80
2022-09-01T02:06:52.537Z,5.50
2022-09-01T02:09:22.794Z,4.90
2022-09-01T02:11:56.737Z,4.70
2022-09-01T02:14:26.133Z,5.00
2022-09-01T02:16:55.547Z,5.00
2022-09-01T02:19:25.468Z,5.10
2022-09-01T02:21:55.684Z,5.10
2022-09-01T02:24:26.009Z,5.10
2022-09-01T02:27:00.086Z,4.90
2022-09-01T02:29:29.585Z,5.20
2022-09-01T02:32:10.571Z,4.90
2022-09-01T02:34:39.936Z,4.60
2022-09-01T02:37:09.129Z,5.40
2022-09-01T02:39:38.381Z,4.90
2022-09-01T02:42:08.517Z,5.80
2022-09-01T02:44:41.404Z,4.90
2022-09-01T02:47:11.172Z,4.60
2022-09-01T02:49:42.611Z,5.70
2022-09-01T02:52:16.940Z,4.80
2022-09-01T02:54:49.286Z,4.50
2022-09-01T02:57:18.529Z,5.40
2022-09-01T02:59:48.054Z,5.10
2022-09-01T03:02:17.135Z,4.70
2022-09-01T03:04:52.580Z,4.60
2022-09-01T03:07:25.059Z,5.20
2022-09-01T03:09:54.457Z,5.10
2022-09-01T03:12:24.443Z,4.60
2022-09-01T03:14:53.759Z,4.60
2022-09-01T03:17:25.947Z,4.60
2022-09-01T03:19:56.913Z,4.40
2022-09-01T03:22:32.720Z,4.40
2022-09-01T03:25:02.067Z,4.80
2022-09-01T03:27:31.302Z,4.70
2022-09-01T03:30:00.699Z,4.30
2022-09-01T03:32:30.509Z,4.50
2022-09-01T03:35:00.458Z,4.50
2022-09-01T03:37:46.347Z,4.40
2022-09-01T03:40:20.255Z,4.60
2022-09-01T03:42:53.846Z,4.10
2022-09-01T03:45:26.549Z,3.90
2022-09-01T03:48:00.127Z,4.30
2022-09-01T03:50:32.042Z,5.00
2022-09-01T03:53:01.562Z,4.20
2022-09-01T03:55:33.829Z,4.40
2022-09-01T03:58:11.104Z,3.90
2022-09-01T04:00:48.974Z,4.00
2022-09-01T04:03:21.544Z,3.80
2022-09-01T04:05:59.892Z,4.00
2022-09-01T04:08:32.624Z,3.80
2022-09-01T04:11:05.275Z,4.70
2022-09-01T04:13:39.389Z,4.30
2022-09-01T04:16:36.873Z,4.30
2022-09-01T04:21:45.545Z,4.50
2022-09-01T04:24:15.078Z,4.70
2022-09-01T04:26:48.354Z,4.40
2022-09-01T04:29:18.819Z,4.30
2022-09-01T04:31:51.703Z,4.50
2022-09-01T04:34:22.104Z,4.60
2022-09-01T04:36:54.386Z,4.30
2022-09-01T04:39:24.774Z,5.20
2022-09-01T04:41:55.054Z,4.70
2022-09-01T04:44:25.065Z,4.60
2022-09-01T04:46:54.874Z,5.70
2022-09-01T04:49:25.991Z,4.90
2022-09-01T04:51:55.080Z,5.10
2022-09-01T04:54:24.239Z,5.90
2022-09-01T04:56:54.650Z,4.90
2022-09-01T04:59:27.950Z,5.70
2022-09-01T05:02:00.897Z,6.00
2022-09-01T05:04:33.313Z,5.10
2022-09-01T05:07:04.589Z,5.70
2022-09-01T05:09:36.667Z,5.90
2022-09-01T05:12:12.900Z,6.00
2022-09-01T05:14:48.057Z,4.20
2022-09-01T05:17:33.596Z,3.40
2022-09-01T05:20:05.501Z,3.40
2022-09-01T05:22:35.163Z,4.40
2022-09-01T05:25:12.669Z,3.50
2022-09-01T05:27:49.072Z,4.10
2022-09-01T05:30:18.950Z,3.80
2022-09-01T05:32:50.180Z,4.10
2022-09-01T05:35:20.273Z,3.60
2022-09-01T05:37:51.335Z,3.80
2022-09-01T05:40:21.664Z,3.80
2022-09-01T05:42:56.176Z,4.90
2022-09-01T05:45:27.104Z,4.90
2022-09-01T05:47:56.553Z,6.10
2022-09-01T05:50:27.789Z,4.80
2022-09-01T05:52:57.007Z,5.70
2022-09-01T05:55:27.873Z,5.20
2022-09-01T05:58:00.397Z,5.30
2022-09-01T06:00:34.228Z,5.10
2022-09-01T06:03:07.282Z,5.40
2022-09-01T06:05:37.232Z,5.10
2022-09-01T06:08:10.406Z,9.70
2022-09-01T06:10:40.480Z,13.30
2022-09-01T06:13:11.106Z,6.40
2022-09-01T06:15:40.348Z,6.50
2022-09-01T06:18:12.217Z,7.00
2022-09-01T06:20:43.162Z,6.00
2022-09-01T06:23:15.099Z,6.70
2022-09-01T06:25:46.331Z,6.00
2022-09-01T06:28:22.694Z,6.40
2022-09-01T06:30:53.633Z,9.40
2022-09-01T06:33:24.801Z,7.10
2022-09-01T06:35:55.466Z,6.30
2022-09-01T06:38:27.331Z,6.60
2022-09-01T06:41:03.673Z,5.90
2022-09-01T06:43:32.956Z,5.80
2022-09-01T06:46:03.336Z,5.70
2022-09-01T06:48:32.460Z,5.50
2022-09-01T06:51:20.625Z,5.80
2022-09-01T06:53:55.989Z,5.70
2022-09-01T06:56:32.029Z,5.50
2022-09-01T06:59:05.062Z,5.30
2022-09-01T07:01:39.253Z,5.30
2022-09-01T07:04:13.221Z,5.20
2022-09-01T07:06:59.356Z,6.00
2022-09-01T07:09:47.197Z,5.50
2022-09-01T07:12:27.675Z,5.10
2022-09-01T07:17:55.201Z,5.40
2022-09-01T07:20:29.695Z,6.00
2022-09-01T07:23:05.691Z,5.70
2022-09-01T07:26:01.440Z,5.70
2022-09-01T07:28:39.143Z,5.30
2022-09-01T07:39:51.256Z,5.40
2022-09-01T07:45:28.035Z,5.50
2022-09-01T07:48:02.644Z,5.60
2022-09-01T07:51:34.269Z,5.30
2022-09-01T07:53:23.846Z,5.60
2022-09-01T07:55:56.046Z,5.60
2022-09-01T07:58:36.337Z,5.30
2022-09-01T08:01:09.281Z,5.00
2022-09-01T08:03:39.748Z,5.70
2022-09-01T08:06:16.200Z,5.70
2022-09-01T08:11:58.286Z,5.30
2022-09-01T08:14:18.402Z,5.30
2022-09-01T08:16:55.328Z,5.70
2022-09-01T08:19:28.707Z,4.90
2022-09-01T08:22:01.429Z,4.80
2022-09-01T08:24:30.759Z,5.10
2022-09-01T08:26:59.854Z,4.80
2022-09-01T08:29:29.604Z,5.10
2022-09-01T08:31:59.152Z,4.60
2022-09-01T08:34:28.217Z,4.80
2022-09-01T08:36:57.291Z,4.80
2022-09-01T08:39:26.786Z,5.00
2022-09-01T08:42:06.296Z,4.70
2022-09-01T08:44:46.738Z,4.70
2022-09-01T08:47:28.724Z,4.50
2022-09-01T08:50:06.124Z,5.60
2022-09-01T08:52:38.797Z,4.70
2022-09-01T08:55:14.685Z,4.90
2022-09-01T08:57:47.441Z,4.50
2022-09-01T09:00:19.567Z,4.90
2022-09-01T09:03:07.749Z,4.80
2022-09-01T09:05:50.496Z,4.80
2022-09-01T09:08:38.382Z,4.70
2022-09-01T09:11:17.026Z,4.50
2022-09-01T09:13:58.878Z,4.80
2022-09-01T09:16:32.038Z,4.60
2022-09-01T09:19:07.013Z,4.50
2022-09-01T09:21:38.398Z,4.60
2022-09-01T09:24:21.488Z,4.20
2022-09-01T09:26:55.357Z,4.60
2022-09-01T09:29:25.193Z,4.60
2022-09-01T09:32:04.623Z,5.00
2022-09-01T09:34:38.837Z,4.80
2022-09-01T09:37:26.793Z,4.70
2022-09-01T09:40:14.697Z,4.60
2022-09-01T09:43:02.735Z,4.70
2022-09-01T09:45:34.874Z,4.70
2022-09-01T09:48:10.768Z,5.20
2022-09-01T09:50:42.819Z,4.60
2022-09-01T09:53:16.502Z,4.50
2022-09-01T09:56:09.825Z,4.60
2022-09-01T09:58:42.357Z,4.80
2022-09-01T10:01:17.855Z,4.40
2022-09-01T10:03:49.975Z,4.80
2022-09-01T10:06:55.929Z,4.60
2022-09-01T10:09:37.352Z,4.20
2022-09-01T10:12:08.057Z,4.40
2022-09-01T10:14:53.022Z,4.40
2022-09-01T10:17:30.016Z,4.70
2022-09-01T10:20:05.448Z,5.20
2022-09-01T10:22:36.884Z,4.60
2022-09-01T10:25:10.470Z,5.10
2022-09-01T10:27:46.036Z,5.00
2022-09-01T10:30:20.079Z,5.40
2022-09-01T10:32:56.019Z,5.20
2022-09-01T10:35:29.960Z,5.00
2022-09-01T10:38:02.599Z,5.10
2022-09-01T10:40:49.179Z,4.60
2022-09-01T10:43:41.011Z,4.40
2022-09-01T10:46:41.880Z,4.70
2022-09-01T10:49:36.391Z,4.80
2022-09-01T10:52:11.331Z,4.60
2022-09-01T10:54:59.733Z,4.90
2022-09-01T10:57:51.018Z,4.70
2022-09-01T11:03:56.534Z,5.00
2022-09-01T11:09:44.908Z,4.50
2022-09-01T11:12:38.201Z,4.70
2022-09-01T11:15:36.720Z,5.00
2022-09-01T11:18:14.685Z,4.50
2022-09-01T11:20:46.869Z,5.00
2022-09-01T11:23:27.734Z,5.10
2022-09-01T11:28:52.017Z,5.10
2022-09-01T11:31:33.359Z,5.30
2022-09-01T11:34:13.181Z,5.30
2022-09-01T11:36:59.803Z,4.80
2022-09-01T11:39:46.716Z,4.70
2022-09-01T11:42:21.672Z,5.20
2022-09-01T11:44:57.253Z,4.60
2022-09-01T11:47:31.375Z,4.80
2022-09-01T11:50:05.152Z,5.40
2022-09-01T11:52:38.715Z,5.00
2022-09-01T11:55:11.500Z,4.90
2022-09-01T11:57:42.083Z,5.50
2022-09-01T12:00:25.195Z,4.40
2022-09-01T12:02:56.187Z,4.80
2022-09-01T12:05:31.106Z,4.40
2022-09-01T12:08:02.508Z,4.60
2022-09-01T12:10:35.816Z,4.80
2022-09-01T12:13:11.718Z,5.00
2022-09-01T12:16:00.617Z,4.50
2022-09-01T12:18:34.578Z,4.70
2022-09-01T12:21:07.470Z,4.20
2022-09-01T12:23:39.737Z,4.70
2022-09-01T12:26:14.534Z,5.10
2022-09-01T12:28:44.059Z,4.80
2022-09-01T12:31:19.507Z,4.20
2022-09-01T12:33:49.735Z,4.70
2022-09-01T12:36:27.796Z,4.90
2022-09-01T12:39:18.061Z,4.30
2022-09-01T12:42:01.327Z,4.50
2022-09-01T12:44:32.681Z,4.60
2022-09-01T12:47:06.450Z,4.60
2022-09-01T12:49:50.316Z,4.70
2022-09-01T12:52:29.487Z,4.80
2022-09-01T12:55:47.276Z,4.50
2022-09-01T12:58:07.903Z,4.80
2022-09-01T13:00:56.334Z,5.00
2022-09-01T13:03:29.109Z,4.80
2022-09-01T13:06:00.209Z,4.80
2022-09-01T13:08:32.826Z,5.10
2022-09-01T13:11:11.336Z,4.90
2022-09-01T13:13:42.390Z,4.80
2022-09-01T13:16:13.293Z,4.70
2022-09-01T13:24:12.324Z,4.60
2022-09-01T13:29:45.222Z,4.80
2022-09-01T13:32:18.728Z,4.40
2022-09-01T13:34:50.570Z,4.30
2022-09-01T13:37:21.464Z,4.50
2022-09-01T13:39:51.356Z,4.60
2022-09-01T13:42:20.570Z,5.50
2022-09-01T13:44:54.034Z,4.70
2022-09-01T13:47:28.958Z,4.50
2022-09-01T13:50:10.504Z,4.70
2022-09-01T13:52:42.900Z,4.50
2022-09-01T13:55:13.973Z,4.70
2022-09-01T13:57:43.392Z,4.90
2022-09-01T14:00:16.828Z,4.90
2022-09-01T14:02:49.597Z,4.30
2022-09-01T14:05:22.495Z,4.30
2022-09-01T14:07:53.952Z,4.40
2022-09-01T14:10:24.375Z,4.30
2022-09-01T14:12:54.078Z,4.50
2022-09-01T14:15:27.147Z,4.30
2022-09-01T14:17:57.855Z,4.20
2022-09-01T14:20:29.572Z,4.20
2022-09-01T14:22:59.899Z,4.00
2022-09-01T14:25:28.985Z,3.90
2022-09-01T14:27:58.041Z,4.30
2022-09-01T14:30:31.933Z,4.00
2022-09-01T14:33:04.320Z,4.20
2022-09-01T14:35:33.896Z,3.90
2022-09-01T14:38:05.432Z,4.40
2022-09-01T14:40:36.957Z,4.00
2022-09-01T14:43:10.343Z,4.00
2022-09-01T14:45:40.578Z,3.90
2022-09-01T14:48:19.911Z,4.30
2022-09-01T14:50:50.461Z,3.60
2022-09-01T14:53:19.754Z,3.60
2022-09-01T14:58:32.763Z,3.60
2022-09-01T15:01:12.196Z,3.50
2022-09-01T15:03:47.531Z,3.50
2022-09-01T15:06:19.317Z,3.60
2022-09-01T15:08:49.193Z,3.40
2022-09-01T15:11:20.832Z,3.70
2022-09-01T15:13:51.931Z,3.80
2022-09-01T15:16:23.190Z,3.70
2022-09-01T15:18:54.904Z,3.50
2022-09-01T15:21:27.827Z,3.30
2022-09-01T15:23:57.999Z,3.20
2022-09-01T15:26:30.408Z,3.50
2022-09-01T15:29:01.540Z,3.40
2022-09-01T15:31:33.319Z,3.60
2022-09-01T15:34:05.534Z,3.40
2022-09-01T15:36:39.382Z,3.90
2022-09-01T15:39:10.320Z,3.40
2022-09-01T15:41:39.537Z,3.40
2022-09-01T15:44:08.865Z,3.80
2022-09-01T15:46:40.124Z,3.60
2022-09-01T15:49:11.574Z,3.70
2022-09-01T15:51:42.268Z,3.40
2022-09-01T15:54:14.915Z,3.50
2022-09-01T15:56:46.739Z,3.60
2022-09-01T15:59:16.208Z,3.50
2022-09-01T16:01:46.902Z,3.20
2022-09-01T16:04:19.873Z,3.40
2022-09-01T16:06:52.577Z,3.60
2022-09-01T16:09:21.756Z,3.30
2022-09-01T16:11:50.801Z,3.90
2022-09-01T16:14:20.609Z,3.90
2022-09-01T16:17:00.190Z,3.50
2022-09-01T16:19:38.511Z,3.30
2022-09-01T16:22:31.525Z,3.70
2022-09-01T16:25:07.955Z,3.50
2022-09-01T16:27:43.723Z,3.40
2022-09-01T16:30:16.069Z,3.70
2022-09-01T16:32:47.232Z,3.80
2022-09-01T16:35:18.572Z,3.90
2022-09-01T16:37:54.750Z,3.60
2022-09-01T16:40:38.969Z,3.60
2022-09-01T16:43:16.957Z,3.90
2022-09-01T16:45:53.579Z,4.00
2022-09-01T16:48:30.932Z,3.80
2022-09-01T16:51:10.510Z,3.80
2022-09-01T16:53:51.980Z,4.20
2022-09-01T16:56:27.575Z,3.90
2022-09-01T16:59:08.635Z,4.20
2022-09-01T17:01:47.858Z,4.30
2022-09-01T17:04:32.871Z,4.20
2022-09-01T17:07:08.307Z,4.20
2022-09-01T17:09:41.748Z,4.20
2022-09-01T17:12:22.799Z,4.70
2022-09-01T17:14:57.500Z,4.40
2022-09-01T17:17:33.977Z,4.60
2022-09-01T17:20:06.254Z,4.30
2022-09-01T17:22:38.722Z,4.70
2022-09-01T17:25:18.876Z,4.50
2022-09-01T17:27:55.493Z,4.40
2022-09-01T17:30:25.253Z,5.00
2022-09-01T17:33:17.523Z,5.20
2022-09-01T17:36:02.891Z,4.40
2022-09-01T17:38:44.700Z,4.90
2022-09-01T17:41:23.188Z,5.10
2022-09-01T17:44:06.830Z,5.40
2022-09-01T17:46:49.311Z,5.20
2022-09-01T17:49:26.142Z,4.70
2022-09-01T17:52:02.892Z,5.10
2022-09-01T17:54:41.227Z,5.00
2022-09-01T17:57:18.581Z,4.70
2022-09-01T18:00:19.866Z,5.40
2022-09-01T18:03:54.053Z,5.20
2022-09-01T18:06:38.808Z,5.10
2022-09-01T18:09:09.138Z,5.20
2022-09-01T18:11:47.921Z,5.00
2022-09-01T18:14:20.903Z,5.90
2022-09-01T18:17:03.201Z,5.50
2022-09-01T18:19:39.397Z,5.50
2022-09-01T18:22:14.027Z,5.00
2022-09-01T18:24:55.508Z,5.00
2022-09-01T18:27:27.797Z,5.50
2022-09-01T18:30:00.901Z,6.10
2022-09-01T18:32:44.873Z,5.60
2022-09-01T18:35:25.435Z,5.60
2022-09-01T18:38:25.108Z,5.10
2022-09-01T18:41:12.218Z,5.40
2022-09-01T18:43:47.877Z,5.30
2022-09-01T18:46:27.720Z,5.10
2022-09-01T18:49:08.740Z,5.10
2022-09-01T18:51:55.426Z,5.00
2022-09-01T18:54:34.342Z,5.30
2022-09-01T18:57:15.064Z,5.30
2022-09-01T19:00:17.873Z,5.60
2022-09-01T19:03:11.159Z,5.60
2022-09-01T19:06:17.242Z,5.10
2022-09-01T19:08:58.972Z,5.30
2022-09-01T19:11:43.982Z,5.10
2022-09-01T19:17:20.663Z,5.00
2022-09-01T19:19:58.832Z,5.60
2022-09-01T19:22:39.538Z,5.40
2022-09-01T19:25:33.008Z,5.10
2022-09-01T19:28:07.129Z,5.30
2022-09-01T19:30:44.447Z,6.00
2022-09-01T19:33:17.929Z,5.20
2022-09-01T19:35:50.623Z,5.80
2022-09-01T19:38:26.952Z,5.40
2022-09-01T19:41:03.796Z,5.40
2022-09-01T19:43:38.105Z,4.90
2022-09-01T19:46:20.440Z,5.00
2022-09-01T19:48:57.774Z,5.10
2022-09-01T19:51:31.967Z,5.60
2022-09-01T19:54:10.974Z,5.40
2022-09-01T19:59:26.957Z,5.00
2022-09-01T20:01:59.783Z,5.10
2022-09-01T20:04:41.265Z,5.30
2022-09-01T20:07:21.546Z,4.90
2022-09-01T20:09:58.403Z,5.00
2022-09-01T20:12:39.605Z,5.40
2022-09-01T20:15:17.235Z,5.00
2022-09-01T20:17:53.399Z,4.70
2022-09-01T20:20:25.764Z,4.70
2022-09-01T20:23:11.610Z,5.00
2022-09-01T20:25:47.438Z,4.60
2022-09-01T20:28:30.572Z,4.70
2022-09-01T20:31:07.428Z,4.90
2022-09-01T20:33:44.727Z,4.70
2022-09-01T20:36:19.977Z,4.90
2022-09-01T20:39:13.003Z,5.00
2022-09-01T20:41:49.659Z,4.90
2022-09-01T20:44:29.020Z,4.80
2022-09-01T20:46:58.603Z,4.70
2022-09-01T20:49:27.995Z,5.10
2022-09-01T20:52:05.309Z,4.60
2022-09-01T20:54:50.251Z,5.70
2022-09-01T20:57:29.997Z,5.30
2022-09-01T21:00:02.732Z,5.50
2022-09-01T21:02:42.064Z,4.80
2022-09-01T21:05:29.439Z,4.90
2022-09-01T21:08:17.136Z,4.60
2022-09-01T21:10:54.060Z,5.00
2022-09-01T21:16:05.282Z,4.70
2022-09-01T21:18:47.270Z,4.50
2022-09-01T21:21:29.333Z,4.80
2022-09-01T21:23:58.639Z,5.20
2022-09-01T21:26:28.186Z,6.20
2022-09-01T21:28:59.358Z,5.30
2022-09-01T21:31:28.791Z,4.30
2022-09-01T21:33:58.243Z,4.30
2022-09-01T21:36:27.320Z,4.30
2022-09-01T21:39:01.821Z,4.10
2022-09-01T21:41:36.402Z,4.80
2022-09-01T21:44:05.673Z,4.80
2022-09-01T21:46:35.238Z,4.70
2022-09-01T21:49:04.911Z,4.70
2022-09-01T21:51:34.249Z,4.60
2022-09-01T21:54:03.250Z,4.40
2022-09-01T21:56:32.355Z,4.90
2022-09-01T21:59:01.888Z,4.90
2022-09-01T22:01:34.486Z,3.90
2022-09-01T22:04:06.434Z,4.10
2022-09-01T22:06:37.800Z,4.50
2022-09-01T22:09:20.682Z,4.30
2022-09-01T22:11:51.913Z,4.80
2022-09-01T22:14:21.859Z,4.80
2022-09-01T22:16:51.112Z,4.80
2022-09-01T22:19:20.651Z,4.70
2022-09-01T22:21:50.948Z,4.60
2022-09-01T22:24:20.961Z,4.70
2022-09-01T22:26:50.320Z,4.20
2022-09-01T22:29:19.957Z,4.30
2022-09-01T22:31:48.975Z,4.50
2022-09-01T22:34:18.170Z,4.20
2022-09-01T22:36:49.756Z,4.20
2022-09-01T22:39:19.951Z,4.50
2022-09-01T22:41:53.322Z,4.30
2022-09-01T22:44:22.686Z,4.60
2022-09-01T22:46:52.273Z,4.20
2022-09-01T22:49:21.339Z,4.50
2022-09-01T22:51:50.539Z,4.00
2022-09-01T22:54:19.521Z,4.20
2022-09-01T22:56:49.599Z,4.30
2022-09-01T22:59:19.447Z,4.30
2022-09-01T23:01:49.088Z,4.30
2022-09-01T23:04:19.026Z,4.30
2022-09-01T23:06:51.390Z,4.50
2022-09-01T23:09:21.551Z,3.90
2022-09-01T23:11:51.293Z,4.00
2022-09-01T23:14:20.621Z,4.10
2022-09-01T23:16:51.231Z,4.00
2022-09-01T23:19:21.454Z,3.70
2022-09-01T23:21:53.791Z,4.10
2022-09-01T23:24:24.275Z,3.90
2022-09-01T23:26:54.194Z,3.70
2022-09-01T23:29:56.950Z,4.10
2022-09-01T23:32:29.639Z,3.40
2022-09-01T23:34:59.312Z,3.40
2022-09-01T23:37:29.270Z,3.40
2022-09-01T23:39:58.372Z,3.60
2022-09-01T23:42:27.692Z,3.20
2022-09-01T23:44:58.360Z,2.90
2022-09-01T23:47:27.970Z,2.70
2022-09-01T23:50:02.391Z,2.70
2022-09-01T23:52:34.072Z,2.90
2022-09-01T23:55:03.550Z,2.60
2022-09-01T23:57:33.097Z,2.60
